Time;durP1;ratioP1;P1;durP2;ratioP2;P2;SDS_P1;SDS_P2;PMS_P1;PMS_P2;Temp;Humidity;BMP_temperature;BMP_pressure;BME280_temperature;BME280_humidity;BME280_pressure;Samples;Min_cycle;Max_cycle;Signal;HPM_P1;HPM_P2
2023/10/24 00:02:15;;;;;;;13.45;11.95;;;10.50;99.90;;;;;;5104917;27;20497;-65
2023/10/24 00:04:41;;;;;;;16.92;12.73;;;10.50;99.90;;;;;;5102648;28;20040;-65
2023/10/24 00:07:06;;;;;;;15.88;12.40;;;10.40;99.90;;;;;;5100694;28;20039;-65
2023/10/24 00:09:32;;;;;;;16.50;12.60;;;10.40;99.90;;;;;;5103196;28;20047;-65
2023/10/24 00:11:58;;;;;;;14.18;12.35;;;10.40;99.90;;;;;;5104275;28;20131;-65
2023/10/24 00:14:23;;;;;;;18.30;12.95;;;10.40;99.90;;;;;;5106096;27;20130;-65
2023/10/24 00:16:49;;;;;;;17.77;12.40;;;10.40;99.90;;;;;;5092512;28;20067;-65
2023/10/24 00:19:15;;;;;;;18.30;12.32;;;10.40;99.90;;;;;;5107105;27;20046;-65
2023/10/24 00:21:40;;;;;;;16.67;13.15;;;10.40;99.90;;;;;;5135582;27;20039;-65
2023/10/24 00:24:06;;;;;;;14.23;12.30;;;10.40;99.90;;;;;;5135564;27;20039;-65
2023/10/24 00:26:32;;;;;;;17.00;12.75;;;10.40;99.90;;;;;;5107677;27;20036;-65
2023/10/24 00:28:57;;;;;;;16.83;13.43;;;10.40;99.90;;;;;;5101599;28;21027;-65
2023/10/24 00:31:23;;;;;;;18.30;12.95;;;10.40;99.90;;;;;;5106067;27;20533;-65
2023/10/24 00:33:49;;;;;;;15.90;12.73;;;10.40;99.90;;;;;;5104325;27;20044;-65
2023/10/24 00:36:14;;;;;;;16.50;14.30;;;10.40;99.90;;;;;;5133659;27;20038;-65
2023/10/24 00:38:40;;;;;;;19.33;13.38;;;10.40;99.90;;;;;;5131874;27;20501;-65
2023/10/24 00:41:06;;;;;;;20.17;14.48;;;10.40;99.90;;;;;;5119011;27;20035;-66
2023/10/24 00:43:31;;;;;;;16.83;13.60;;;10.40;99.90;;;;;;5103859;27;20427;-65
2023/10/24 00:45:57;;;;;;;19.17;14.63;;;10.40;99.90;;;;;;5102506;27;20032;-65
2023/10/24 00:48:23;;;;;;;17.25;13.57;;;10.40;99.90;;;;;;5101986;27;20036;-65
2023/10/24 00:50:48;;;;;;;19.67;13.45;;;10.40;99.90;;;;;;5104236;28;20083;-65
2023/10/24 00:53:14;;;;;;;17.88;13.57;;;10.40;99.90;;;;;;5103999;27;20038;-65
2023/10/24 00:55:40;;;;;;;20.73;15.13;;;10.40;99.90;;;;;;5104728;27;20047;-65
2023/10/24 00:58:09;;;;;;;18.10;14.00;;;10.40;99.90;;;;;;5102228;28;20451;-65
2023/10/24 01:00:35;;;;;;;18.67;14.75;;;10.40;99.90;;;;;;5105193;27;20043;-65
2023/10/24 01:03:02;;;;;;;17.80;13.05;;;10.40;99.90;;;;;;5093412;28;20040;-65
2023/10/24 01:05:28;;;;;;;17.38;13.73;;;10.40;99.90;;;;;;5102622;28;20032;-65
2023/10/24 01:07:54;;;;;;;17.95;13.27;;;10.40;99.90;;;;;;5106356;27;20467;-65
2023/10/24 01:10:19;;;;;;;18.48;14.05;;;10.50;99.90;;;;;;5102363;27;20156;-65
2023/10/24 01:12:45;;;;;;;16.48;13.00;;;10.40;99.90;;;;;;5102672;28;20120;-65
2023/10/24 01:15:11;;;;;;;15.02;11.98;;;10.40;99.90;;;;;;5103470;27;20504;-65
2023/10/24 01:17:47;;;;;;;15.15;12.05;;;10.40;99.90;;;;;;5106004;28;20050;-65
2023/10/24 01:20:13;;;;;;;17.90;13.15;;;10.40;99.90;;;;;;5103527;28;20044;-65
2023/10/24 01:22:39;;;;;;;16.35;12.85;;;10.40;99.90;;;;;;5098504;28;20508;-65
2023/10/24 01:25:10;;;;;;;17.33;12.65;;;10.50;99.90;;;;;;5100351;28;20131;-65
2023/10/24 01:27:37;;;;;;;16.08;12.23;;;10.50;99.90;;;;;;5105475;28;20085;-65
2023/10/24 01:30:03;;;;;;;17.30;12.52;;;10.50;99.90;;;;;;5132303;27;20063;-65
2023/10/24 01:32:30;;;;;;;16.27;13.05;;;10.50;99.90;;;;;;5103665;28;20079;-65
2023/10/24 01:34:55;;;;;;;16.27;11.85;;;10.50;99.90;;;;;;5103409;28;20067;-65
2023/10/24 01:37:21;;;;;;;15.65;12.88;;;10.60;99.90;;;;;;5102394;28;20076;-65
2023/10/24 01:39:47;;;;;;;18.27;12.98;;;10.60;99.90;;;;;;5105089;28;20074;-65
2023/10/24 01:42:12;;;;;;;16.00;12.35;;;10.60;99.90;;;;;;5103200;28;20050;-65
2023/10/24 01:44:38;;;;;;;15.60;12.05;;;10.60;99.90;;;;;;5101600;28;20401;-65
2023/10/24 01:47:03;;;;;;;15.45;11.60;;;10.60;99.90;;;;;;5103486;28;20039;-65
2023/10/24 01:49:29;;;;;;;15.82;12.00;;;10.80;99.90;;;;;;5105962;28;20047;-66
2023/10/24 01:51:55;;;;;;;15.90;12.63;;;10.70;99.90;;;;;;5133720;27;20049;-66
2023/10/24 01:54:20;;;;;;;14.48;11.52;;;10.60;99.90;;;;;;5104079;28;20543;-66
2023/10/24 01:56:46;;;;;;;15.07;12.23;;;10.60;99.90;;;;;;5104222;28;20040;-65
2023/10/24 01:59:11;;;;;;;19.42;12.43;;;10.70;99.90;;;;;;5102256;28;20056;-65
2023/10/24 02:01:38;;;;;;;14.23;11.70;;;10.70;99.90;;;;;;5119427;27;20067;-65
2023/10/24 02:04:04;;;;;;;16.42;11.85;;;10.70;99.90;;;;;;5102237;28;20089;-65
2023/10/24 02:06:29;;;;;;;15.88;11.43;;;10.70;99.90;;;;;;5105706;27;20883;-65
2023/10/24 02:08:55;;;;;;;15.57;11.27;;;10.70;99.90;;;;;;5110430;27;20068;-65
2023/10/24 02:11:20;;;;;;;17.70;11.48;;;10.70;99.90;;;;;;5107216;27;20039;-65
2023/10/24 02:13:46;;;;;;;17.02;12.30;;;10.80;99.90;;;;;;5104595;27;20037;-65
2023/10/24 02:16:12;;;;;;;13.95;11.35;;;10.80;99.90;;;;;;5108902;27;20401;-65
2023/10/24 02:18:37;;;;;;;14.48;10.75;;;10.80;99.90;;;;;;5104830;28;20067;-65
2023/10/24 02:21:07;;;;;;;17.90;12.02;;;10.80;99.90;;;;;;5105179;27;20040;-65
2023/10/24 02:23:33;;;;;;;14.38;11.65;;;10.80;99.90;;;;;;5105639;27;20371;-65
2023/10/24 02:25:58;;;;;;;16.77;12.32;;;10.80;99.90;;;;;;5107245;27;20084;-65
2023/10/24 02:28:24;;;;;;;16.05;12.43;;;10.80;99.90;;;;;;5105492;27;20382;-65
2023/10/24 02:30:49;;;;;;;15.35;11.77;;;10.80;99.90;;;;;;5108122;27;20032;-65
2023/10/24 02:33:15;;;;;;;15.70;11.52;;;10.90;99.90;;;;;;5135437;27;20043;-65
2023/10/24 02:35:41;;;;;;;16.73;11.48;;;10.80;99.90;;;;;;5109375;28;20478;-65
2023/10/24 02:38:06;;;;;;;17.20;11.68;;;10.90;99.90;;;;;;5106498;27;20040;-65
2023/10/24 02:40:32;;;;;;;17.80;12.52;;;10.90;99.90;;;;;;5107781;27;20167;-65
2023/10/24 02:42:58;;;;;;;18.38;12.75;;;10.90;99.90;;;;;;5137465;27;20040;-65
2023/10/24 02:45:24;;;;;;;16.02;11.98;;;10.90;99.90;;;;;;5106595;27;20042;-65
2023/10/24 02:47:49;;;;;;;17.45;12.85;;;10.90;99.90;;;;;;5134400;27;20496;-65
2023/10/24 02:50:15;;;;;;;16.52;11.90;;;10.90;99.90;;;;;;5106854;27;20124;-65
2023/10/24 02:52:40;;;;;;;16.55;12.57;;;10.90;99.90;;;;;;5106626;27;20128;-65
2023/10/24 02:55:07;;;;;;;15.32;11.75;;;10.90;99.90;;;;;;5138195;27;20052;-65
2023/10/24 02:57:32;;;;;;;17.85;12.43;;;11.00;99.90;;;;;;5136833;27;20485;-65
2023/10/24 02:59:58;;;;;;;15.40;11.80;;;11.00;99.90;;;;;;5105323;27;20046;-65
2023/10/24 03:02:24;;;;;;;17.75;12.23;;;11.00;99.90;;;;;;5104684;27;20562;-65
2023/10/24 03:04:49;;;;;;;22.08;14.25;;;11.00;99.90;;;;;;5105861;27;20071;-65
2023/10/24 03:07:15;;;;;;;17.55;12.52;;;11.00;99.90;;;;;;5101752;28;20037;-65
2023/10/24 03:09:41;;;;;;;18.90;12.65;;;11.00;99.90;;;;;;5106742;27;20085;-65
2023/10/24 03:12:09;;;;;;;20.80;13.80;;;11.00;99.90;;;;;;5104849;27;20489;-65
2023/10/24 03:14:36;;;;;;;19.63;13.13;;;11.00;99.90;;;;;;5135283;27;20398;-65
2023/10/24 03:17:02;;;;;;;17.90;13.63;;;11.00;99.90;;;;;;5137653;27;20057;-65
2023/10/24 03:19:28;;;;;;;17.48;13.07;;;11.00;99.90;;;;;;5103266;27;20039;-65
2023/10/24 03:21:53;;;;;;;16.80;12.75;;;11.00;99.90;;;;;;5105551;27;20047;-65
2023/10/24 03:24:19;;;;;;;20.00;13.15;;;11.00;99.90;;;;;;5104188;27;20048;-65
2023/10/24 03:26:45;;;;;;;21.48;13.95;;;11.00;99.90;;;;;;5104563;27;21485;-65
2023/10/24 03:29:10;;;;;;;20.30;14.50;;;11.00;99.90;;;;;;5107236;27;20032;-66
2023/10/24 03:31:36;;;;;;;18.00;13.27;;;11.10;99.90;;;;;;5104147;28;20441;-66
2023/10/24 03:34:02;;;;;;;20.52;13.93;;;11.00;99.90;;;;;;5106120;28;20123;-66
2023/10/24 03:36:28;;;;;;;20.45;14.55;;;11.00;99.90;;;;;;5103979;27;20139;-66
2023/10/24 03:38:54;;;;;;;19.88;14.15;;;11.10;99.90;;;;;;5101225;27;20080;-66
2023/10/24 03:41:19;;;;;;;17.50;13.82;;;11.00;99.90;;;;;;5135527;27;20089;-66
2023/10/24 03:43:48;;;;;;;20.58;14.75;;;11.10;99.90;;;;;;5105897;28;20067;-66
2023/10/24 03:46:14;;;;;;;19.70;14.55;;;11.10;99.90;;;;;;5107336;27;20040;-66
2023/10/24 03:48:41;;;;;;;21.67;15.75;;;11.10;99.90;;;;;;5102095;27;20428;-66
2023/10/24 03:51:06;;;;;;;21.55;15.30;;;11.20;99.90;;;;;;5106918;27;20435;-66
2023/10/24 03:53:32;;;;;;;23.60;15.35;;;11.10;99.90;;;;;;5120675;27;20044;-65
2023/10/24 03:55:59;;;;;;;22.17;15.40;;;11.10;99.90;;;;;;5133699;27;20454;-66
2023/10/24 03:58:25;;;;;;;20.80;16.08;;;11.10;99.90;;;;;;5133546;27;20126;-65
2023/10/24 04:00:51;;;;;;;23.42;15.73;;;11.10;99.90;;;;;;5136260;27;20258;-65
2023/10/24 04:03:17;;;;;;;21.45;16.40;;;11.20;99.90;;;;;;5102635;28;20040;-66
2023/10/24 04:05:42;;;;;;;22.83;14.90;;;11.20;99.90;;;;;;5106263;27;20529;-65
2023/10/24 04:08:09;;;;;;;23.08;16.05;;;11.10;99.90;;;;;;5105010;27;20067;-65
2023/10/24 04:10:34;;;;;;;22.58;16.73;;;11.10;99.90;;;;;;5136564;27;20047;-65
2023/10/24 04:13:00;;;;;;;21.40;15.90;;;11.20;99.90;;;;;;5100291;28;20035;-65
2023/10/24 04:15:27;;;;;;;22.02;16.55;;;11.20;99.90;;;;;;5105354;28;20040;-65
2023/10/24 04:17:53;;;;;;;24.48;16.13;;;11.20;99.90;;;;;;5105388;27;20048;-66
2023/10/24 04:20:19;;;;;;;24.35;17.23;;;11.20;99.90;;;;;;5087173;28;20050;-65
2023/10/24 04:22:47;;;;;;;18.98;16.35;;;11.30;99.90;;;;;;5104037;28;20043;-65
2023/10/24 04:25:12;;;;;;;19.65;15.07;;;11.30;99.90;;;;;;5104944;27;20624;-65
2023/10/24 04:27:38;;;;;;;20.67;15.15;;;11.30;99.90;;;;;;5090661;27;20070;-65
2023/10/24 04:30:06;;;;;;;21.52;16.85;;;11.30;99.90;;;;;;5101697;28;20028;-65
2023/10/24 04:32:31;;;;;;;19.70;15.43;;;11.30;99.90;;;;;;5104276;27;20039;-65
2023/10/24 04:34:57;;;;;;;20.52;16.67;;;11.40;99.90;;;;;;5138173;27;20084;-65
2023/10/24 04:37:22;;;;;;;16.42;14.70;;;11.40;99.90;;;;;;5133561;27;20031;-65
2023/10/24 04:39:48;;;;;;;20.08;13.95;;;11.40;99.90;;;;;;5103939;28;20481;-65
2023/10/24 04:42:14;;;;;;;19.48;14.50;;;11.50;99.90;;;;;;5106046;27;20030;-65
2023/10/24 04:44:40;;;;;;;16.58;14.60;;;11.50;99.90;;;;;;5102721;27;20043;-65
2023/10/24 04:47:05;;;;;;;18.15;14.57;;;11.50;99.90;;;;;;5080990;28;20036;-65
2023/10/24 04:49:32;;;;;;;15.80;14.10;;;11.40;99.90;;;;;;5102596;27;21514;-65
2023/10/24 04:51:57;;;;;;;16.17;13.77;;;11.50;99.90;;;;;;5083486;28;20107;-65
2023/10/24 04:54:23;;;;;;;15.82;13.85;;;11.50;99.90;;;;;;5106809;27;20036;-65
2023/10/24 04:56:49;;;;;;;14.88;12.15;;;11.50;99.90;;;;;;5100377;27;20039;-65
2023/10/24 04:59:14;;;;;;;13.25;12.05;;;11.50;99.90;;;;;;5104076;27;20080;-65
2023/10/24 05:01:40;;;;;;;12.70;11.40;;;11.40;99.90;;;;;;5104789;28;20067;-65
2023/10/24 05:04:06;;;;;;;14.55;11.63;;;11.50;99.90;;;;;;5104601;28;20040;-65
2023/10/24 05:06:33;;;;;;;13.30;11.45;;;11.50;99.90;;;;;;5133404;27;20051;-65
2023/10/24 05:08:59;;;;;;;13.90;11.88;;;11.50;99.90;;;;;;5131922;27;20044;-65
2023/10/24 05:11:25;;;;;;;12.45;10.77;;;11.60;99.90;;;;;;5133013;27;20043;-65
2023/10/24 05:13:51;;;;;;;12.73;10.82;;;11.50;99.90;;;;;;5101762;28;20032;-65
2023/10/24 05:16:16;;;;;;;11.43;10.07;;;11.50;99.90;;;;;;5105811;27;20046;-65
2023/10/24 05:18:42;;;;;;;11.02;9.95;;;11.60;99.90;;;;;;5119961;27;20055;-65
2023/10/24 05:21:08;;;;;;;10.35;8.98;;;11.50;99.90;;;;;;5102761;28;20044;-65
2023/10/24 05:23:34;;;;;;;11.35;9.15;;;11.50;99.90;;;;;;5099805;28;20050;-65
2023/10/24 05:25:59;;;;;;;9.10;8.27;;;11.50;99.90;;;;;;5101213;28;20104;-65
2023/10/24 05:28:25;;;;;;;11.50;8.65;;;11.60;99.90;;;;;;5098668;28;20036;-65
2023/10/24 05:30:50;;;;;;;14.50;9.77;;;11.50;99.90;;;;;;5099810;28;20044;-65
2023/10/24 05:33:16;;;;;;;11.85;9.32;;;11.50;99.90;;;;;;5102633;28;20036;-65
2023/10/24 05:35:47;;;;;;;9.95;8.38;;;11.50;99.90;;;;;;5135173;27;20047;-65
2023/10/24 05:38:13;;;;;;;9.20;8.27;;;11.50;99.90;;;;;;5104717;28;20405;-65
2023/10/24 05:40:39;;;;;;;8.93;8.07;;;11.50;99.90;;;;;;5105028;27;20085;-65
2023/10/24 05:43:06;;;;;;;9.90;8.10;;;11.50;99.90;;;;;;5109807;27;20046;-65
2023/10/24 05:45:32;;;;;;;10.70;7.72;;;11.50;99.90;;;;;;5107221;27;20040;-65
2023/10/24 05:47:57;;;;;;;8.75;7.80;;;11.50;99.90;;;;;;5106668;27;20058;-65
2023/10/24 05:50:24;;;;;;;9.13;7.82;;;11.50;99.90;;;;;;5104525;28;20027;-65
2023/10/24 05:52:49;;;;;;;9.38;8.38;;;11.40;99.90;;;;;;5135990;27;20043;-65
2023/10/24 05:55:15;;;;;;;8.88;8.02;;;11.50;99.90;;;;;;5106409;27;20047;-65
2023/10/24 05:57:41;;;;;;;9.57;7.80;;;11.50;99.90;;;;;;5135714;27;20043;-65
2023/10/24 06:00:07;;;;;;;10.77;7.63;;;11.40;99.90;;;;;;5108499;27;20031;-65
2023/10/24 06:02:33;;;;;;;8.05;7.25;;;11.40;99.90;;;;;;5107409;27;20043;-65
2023/10/24 06:04:59;;;;;;;8.30;7.50;;;11.50;99.90;;;;;;5105589;27;20042;-65
2023/10/24 06:07:24;;;;;;;7.60;6.90;;;11.50;99.90;;;;;;5109396;27;20566;-65
2023/10/24 06:09:50;;;;;;;7.53;6.75;;;11.40;99.90;;;;;;5106491;27;20036;-65
2023/10/24 06:12:15;;;;;;;8.02;7.25;;;11.40;99.90;;;;;;5104016;27;20604;-65
2023/10/24 06:14:41;;;;;;;8.75;7.88;;;11.40;99.90;;;;;;5108097;27;20184;-65
2023/10/24 06:17:06;;;;;;;8.55;7.75;;;11.40;99.90;;;;;;5104259;27;20581;-65
2023/10/24 06:19:33;;;;;;;8.48;7.30;;;11.40;99.90;;;;;;5107549;27;20122;-65
2023/10/24 06:21:59;;;;;;;8.40;7.53;;;11.40;99.90;;;;;;5105211;27;20039;-65
2023/10/24 06:24:24;;;;;;;8.40;7.70;;;11.50;99.90;;;;;;5107661;27;20055;-65
2023/10/24 06:26:50;;;;;;;9.20;8.25;;;11.40;99.90;;;;;;5105649;27;20036;-65
2023/10/24 06:29:16;;;;;;;10.88;8.45;;;11.40;99.90;;;;;;5100539;27;20378;-65
2023/10/24 06:31:41;;;;;;;8.05;7.18;;;11.40;99.90;;;;;;5101161;28;20040;-65
2023/10/24 06:34:07;;;;;;;10.80;7.72;;;11.40;99.90;;;;;;5101770;27;20042;-65
2023/10/24 06:36:34;;;;;;;7.45;6.85;;;11.50;99.90;;;;;;5099761;27;20040;-65
2023/10/24 06:39:03;;;;;;;10.98;7.63;;;11.40;99.90;;;;;;5104868;28;20127;-65
2023/10/24 06:41:29;;;;;;;8.57;7.63;;;11.40;99.90;;;;;;5102712;28;20074;-65
2023/10/24 06:43:54;;;;;;;8.18;7.38;;;11.40;99.90;;;;;;5104600;28;20100;-65
2023/10/24 06:46:20;;;;;;;10.57;7.78;;;11.40;99.90;;;;;;5133411;27;20043;-65
2023/10/24 06:48:46;;;;;;;9.32;8.40;;;11.40;99.90;;;;;;5102124;27;20527;-65
2023/10/24 06:51:11;;;;;;;10.80;7.32;;;11.40;99.90;;;;;;5102668;28;20040;-65
2023/10/24 06:53:37;;;;;;;11.65;7.85;;;11.40;99.90;;;;;;5100455;27;20038;-65
2023/10/24 06:56:03;;;;;;;8.07;7.28;;;11.40;99.90;;;;;;5102296;27;20035;-65
2023/10/24 06:58:29;;;;;;;8.70;6.95;;;11.40;99.90;;;;;;5100573;27;20044;-65
2023/10/24 07:00:55;;;;;;;8.40;7.53;;;11.40;99.90;;;;;;5104764;27;20042;-65
2023/10/24 07:03:20;;;;;;;7.78;6.95;;;11.40;99.90;;;;;;5104420;27;20041;-65
2023/10/24 07:05:52;;;;;;;7.43;6.72;;;11.40;99.90;;;;;;5102236;27;20054;-65
2023/10/24 07:08:18;;;;;;;9.80;7.07;;;11.40;99.90;;;;;;5101468;28;20039;-65
2023/10/24 07:10:45;;;;;;;7.78;6.97;;;11.40;99.90;;;;;;5104331;27;20051;-65
2023/10/24 07:13:11;;;;;;;8.00;7.18;;;11.40;99.90;;;;;;5099916;27;20036;-65
2023/10/24 07:15:38;;;;;;;7.20;6.50;;;11.40;99.90;;;;;;5100277;27;20513;-65
2023/10/24 07:18:04;;;;;;;7.38;6.43;;;11.40;99.90;;;;;;5096707;27;20047;-65
2023/10/24 07:20:33;;;;;;;9.27;6.75;;;11.40;99.90;;;;;;5101040;27;20048;-65
2023/10/24 07:22:59;;;;;;;8.48;7.50;;;11.30;99.90;;;;;;5131357;27;20059;-65
2023/10/24 07:25:25;;;;;;;7.28;6.57;;;11.40;99.90;;;;;;5101436;27;20490;-65
2023/10/24 07:27:50;;;;;;;7.85;6.28;;;11.40;99.90;;;;;;5101338;27;20066;-65
2023/10/24 07:30:16;;;;;;;9.75;6.68;;;11.40;99.90;;;;;;5099443;27;20528;-65
2023/10/24 07:32:41;;;;;;;8.10;7.05;;;11.40;99.90;;;;;;5101290;27;20071;-65
2023/10/24 07:35:08;;;;;;;7.03;6.32;;;11.40;99.90;;;;;;5101118;27;20123;-65
2023/10/24 07:37:36;;;;;;;7.80;7.03;;;11.40;99.90;;;;;;5100273;27;20050;-65
2023/10/24 07:40:03;;;;;;;7.05;6.30;;;11.40;99.90;;;;;;5100804;28;20043;-65
2023/10/24 07:42:28;;;;;;;8.52;6.72;;;11.40;99.90;;;;;;5100397;27;20048;-65
2023/10/24 07:44:56;;;;;;;7.75;5.93;;;11.40;99.90;;;;;;5105937;27;20077;-65
2023/10/24 07:47:22;;;;;;;7.65;6.30;;;11.40;99.90;;;;;;5101121;28;21057;-65
2023/10/24 07:49:48;;;;;;;8.00;6.80;;;11.40;99.90;;;;;;5103173;27;20032;-65
2023/10/24 07:52:13;;;;;;;6.93;6.22;;;11.40;99.90;;;;;;5105341;27;20439;-65
2023/10/24 07:54:39;;;;;;;8.25;7.40;;;11.30;99.90;;;;;;5101071;27;20123;-65
2023/10/24 07:57:05;;;;;;;9.60;7.85;;;11.40;99.90;;;;;;5102302;28;20126;-65
2023/10/24 07:59:31;;;;;;;9.68;7.45;;;11.40;99.90;;;;;;5089409;27;20507;-65
2023/10/24 08:01:56;;;;;;;9.45;7.13;;;11.40;99.90;;;;;;5098410;27;20394;-65
2023/10/24 08:04:22;;;;;;;9.02;7.25;;;11.40;99.90;;;;;;5133541;27;20047;-65
2023/10/24 08:06:48;;;;;;;9.10;7.25;;;11.40;99.90;;;;;;5104812;27;20031;-64
2023/10/24 08:09:14;;;;;;;8.30;7.00;;;11.40;99.90;;;;;;5098938;28;20032;-65
2023/10/24 08:11:40;;;;;;;7.82;7.03;;;11.40;99.90;;;;;;5102480;28;20130;-65
2023/10/24 08:14:06;;;;;;;9.73;7.90;;;11.40;99.90;;;;;;5105936;27;20031;-65
2023/10/24 08:16:32;;;;;;;7.70;6.90;;;11.40;99.90;;;;;;5102820;27;20047;-65
2023/10/24 08:18:58;;;;;;;13.40;7.85;;;11.40;99.90;;;;;;5103135;28;20051;-65
2023/10/24 08:21:24;;;;;;;10.48;8.15;;;11.40;99.90;;;;;;5137656;27;20089;-65
2023/10/24 08:23:49;;;;;;;10.27;7.43;;;11.40;99.90;;;;;;5108515;27;20058;-65
2023/10/24 08:26:16;;;;;;;12.73;7.18;;;11.40;99.90;;;;;;5101643;27;20036;-65
2023/10/24 08:28:42;;;;;;;9.30;7.45;;;11.50;99.90;;;;;;5090119;27;20126;-65
2023/10/24 08:31:07;;;;;;;11.50;7.32;;;11.40;99.90;;;;;;5105157;28;20134;-65
2023/10/24 08:33:33;;;;;;;9.65;8.00;;;11.50;99.90;;;;;;5102901;28;20040;-65
2023/10/24 08:35:59;;;;;;;8.88;7.50;;;11.50;99.90;;;;;;5102277;27;20119;-65
2023/10/24 08:38:24;;;;;;;8.85;7.95;;;11.50;99.90;;;;;;5098460;27;21682;-64
2023/10/24 08:40:50;;;;;;;8.35;7.53;;;11.40;99.90;;;;;;5101783;27;21236;-65
2023/10/24 08:43:18;;;;;;;13.63;8.77;;;11.50;99.90;;;;;;5102277;28;20035;-65
2023/10/24 08:45:44;;;;;;;9.18;8.23;;;11.40;99.90;;;;;;5101271;27;20127;-65
2023/10/24 08:48:10;;;;;;;13.68;8.32;;;11.50;99.90;;;;;;5105470;28;20511;-65
2023/10/24 08:50:37;;;;;;;11.23;8.23;;;11.50;99.90;;;;;;5101513;27;20040;-65
2023/10/24 08:53:03;;;;;;;11.60;8.30;;;11.40;99.90;;;;;;5101745;27;20066;-64
2023/10/24 08:55:29;;;;;;;9.48;8.45;;;11.50;99.90;;;;;;5131698;27;20079;-65
2023/10/24 08:57:59;;;;;;;9.60;8.23;;;11.40;99.90;;;;;;5101970;28;20050;-65
2023/10/24 09:00:27;;;;;;;9.63;8.23;;;11.50;99.90;;;;;;5112896;27;20039;-65
2023/10/24 09:02:55;;;;;;;9.75;8.75;;;11.50;99.90;;;;;;5101997;28;20088;-65
2023/10/24 09:05:25;;;;;;;8.63;7.78;;;11.50;99.90;;;;;;5101863;28;20051;-65
2023/10/24 09:07:51;;;;;;;10.45;8.85;;;11.50;99.90;;;;;;5102418;28;20035;-65
2023/10/24 09:10:17;;;;;;;10.60;9.20;;;11.50;99.90;;;;;;5103375;27;20039;-65
2023/10/24 09:12:42;;;;;;;10.90;8.77;;;11.50;99.90;;;;;;5102262;27;20043;-65
2023/10/24 09:15:11;;;;;;;10.23;8.05;;;11.50;99.90;;;;;;5099338;28;20071;-65
2023/10/24 09:17:37;;;;;;;8.95;8.02;;;11.50;99.90;;;;;;5132783;27;20047;-65
2023/10/24 09:20:05;;;;;;;9.35;7.95;;;11.40;99.90;;;;;;5099381;28;20043;-65
2023/10/24 09:22:31;;;;;;;10.65;7.93;;;11.40;99.90;;;;;;5100785;28;20062;-65
2023/10/24 09:24:58;;;;;;;9.80;7.53;;;11.40;99.90;;;;;;5102548;28;20050;-65
2023/10/24 09:27:24;;;;;;;8.70;7.90;;;11.50;99.90;;;;;;5101288;28;20035;-65
2023/10/24 09:29:50;;;;;;;10.20;8.60;;;11.40;99.90;;;;;;5100089;28;20074;-65
2023/10/24 09:32:17;;;;;;;10.80;7.35;;;11.40;99.90;;;;;;5101953;28;20048;-65
2023/10/24 09:34:44;;;;;;;8.43;7.30;;;11.50;99.90;;;;;;5104449;28;20075;-65
2023/10/24 09:37:10;;;;;;;12.75;8.75;;;11.40;99.90;;;;;;5106136;28;20039;-65
2023/10/24 09:39:51;;;;;;;9.10;7.55;;;11.40;99.90;;;;;;5096070;28;20048;-64
2023/10/24 09:42:26;;;;;;;8.82;7.47;;;11.40;99.90;;;;;;5101364;28;20048;-65
2023/10/24 09:44:57;;;;;;;8.32;6.95;;;11.40;99.90;;;;;;5100276;28;20152;-65
2023/10/24 09:47:24;;;;;;;8.27;7.47;;;11.40;99.90;;;;;;5133252;27;20036;-65
2023/10/24 09:49:51;;;;;;;7.47;6.78;;;11.50;99.90;;;;;;5103095;28;20035;-65
2023/10/24 09:52:19;;;;;;;8.27;7.47;;;11.50;99.90;;;;;;5133660;27;20115;-65
2023/10/24 09:54:48;;;;;;;7.22;6.55;;;11.50;99.90;;;;;;5101357;28;20043;-65
2023/10/24 09:57:18;;;;;;;8.98;6.97;;;11.40;99.90;;;;;;5118621;27;20036;-65
2023/10/24 09:59:46;;;;;;;7.57;6.75;;;11.50;99.90;;;;;;5099787;28;20390;-65
2023/10/24 10:02:13;;;;;;;7.28;6.60;;;11.50;99.90;;;;;;5101457;28;20040;-65
2023/10/24 10:04:40;;;;;;;6.78;6.05;;;11.40;99.90;;;;;;5100425;28;20055;-65
2023/10/24 10:07:09;;;;;;;7.18;6.57;;;11.50;99.90;;;;;;5099830;28;20081;-65
2023/10/24 10:09:36;;;;;;;8.32;6.85;;;11.50;99.90;;;;;;5103962;28;20031;-65
2023/10/24 10:12:04;;;;;;;7.43;6.72;;;11.50;99.90;;;;;;5100215;28;20040;-65
2023/10/24 10:14:48;;;;;;;8.10;6.63;;;11.50;99.90;;;;;;5103810;28;20151;-65
2023/10/24 10:17:35;;;;;;;7.10;6.50;;;11.50;99.90;;;;;;5100223;28;20044;-65
2023/10/24 10:20:36;;;;;;;6.22;5.72;;;11.60;99.90;;;;;;5099903;28;20046;-65
2023/10/24 10:23:38;;;;;;;7.00;6.32;;;11.60;99.90;;;;;;5133882;27;20052;-65
2023/10/24 10:26:07;;;;;;;7.65;6.72;;;11.70;99.90;;;;;;5133024;27;20040;-65
2023/10/24 10:28:56;;;;;;;11.40;7.22;;;11.70;99.90;;;;;;5100477;28;20109;-65
2023/10/24 10:31:54;;;;;;;7.03;6.07;;;11.80;99.90;;;;;;5087082;28;20047;-65
2023/10/24 10:34:33;;;;;;;7.47;6.78;;;11.90;99.90;;;;;;5137145;27;20040;-64
2023/10/24 10:36:59;;;;;;;7.55;6.85;;;11.90;99.90;;;;;;5104669;27;20873;-64
2023/10/24 10:39:25;;;;;;;7.10;6.50;;;11.90;99.90;;;;;;5103852;27;20118;-64
2023/10/24 10:41:50;;;;;;;7.80;6.78;;;11.80;99.90;;;;;;5103904;27;20106;-65
2023/10/24 10:44:35;;;;;;;7.88;7.10;;;11.90;99.90;;;;;;5104020;27;20093;-65
2023/10/24 10:47:02;;;;;;;7.13;6.53;;;11.90;99.90;;;;;;5106577;28;20428;-65
2023/10/24 10:49:38;;;;;;;8.05;7.35;;;12.00;99.90;;;;;;5100962;27;20048;-65
2023/10/24 10:52:15;;;;;;;8.23;7.53;;;12.00;99.90;;;;;;5103845;27;20071;-65
2023/10/24 10:55:14;;;;;;;7.93;7.22;;;12.00;99.90;;;;;;5103300;27;20052;-64
2023/10/24 10:58:05;;;;;;;8.25;7.55;;;12.00;99.90;;;;;;5105182;27;20643;-65
2023/10/24 11:01:02;;;;;;;7.97;7.28;;;12.10;99.90;;;;;;5104272;28;20043;-65
2023/10/24 11:03:27;;;;;;;;;;;12.10;99.90;;;;;;5095926;28;20051;-65
2023/10/24 11:05:53;;;;;;;9.87;7.33;;;12.10;99.90;;;;;;5105627;27;19919;-65
2023/10/24 11:08:22;;;;;;;8.48;7.50;;;12.10;99.90;;;;;;5106100;27;20755;-65
2023/10/24 11:10:54;;;;;;;7.95;7.25;;;12.20;99.90;;;;;;5104785;28;20046;-65
2023/10/24 11:13:42;;;;;;;10.50;7.45;;;12.20;99.90;;;;;;5107958;28;20114;-65
2023/10/24 11:16:13;;;;;;;8.75;8.05;;;12.30;99.90;;;;;;5109817;27;20044;-65
2023/10/24 11:18:40;;;;;;;7.47;6.78;;;12.30;99.90;;;;;;5100129;28;20505;-64
2023/10/24 11:21:08;;;;;;;9.95;7.65;;;12.30;99.90;;;;;;5104354;28;20051;-65
2023/10/24 11:23:34;;;;;;;8.05;7.32;;;12.30;99.90;;;;;;5107018;27;20058;-65
2023/10/24 11:26:00;;;;;;;8.00;7.20;;;12.40;99.90;;;;;;5105306;27;20680;-65
2023/10/24 11:28:27;;;;;;;9.45;7.43;;;12.40;99.90;;;;;;5105294;28;20126;-65
2023/10/24 11:30:56;;;;;;;9.52;7.15;;;12.40;99.90;;;;;;5102222;28;20047;-65
2023/10/24 11:33:22;;;;;;;7.90;7.28;;;12.50;99.90;;;;;;5103858;28;20114;-65
2023/10/24 11:35:49;;;;;;;7.85;7.05;;;12.60;99.90;;;;;;5106166;27;20051;-65
2023/10/24 11:38:14;;;;;;;8.68;6.85;;;12.60;99.90;;;;;;5135384;27;20056;-65
2023/10/24 11:40:41;;;;;;;7.15;6.57;;;12.50;99.90;;;;;;5101075;27;20057;-65
2023/10/24 11:43:08;;;;;;;7.68;7.07;;;12.60;99.90;;;;;;5104869;27;20051;-65
2023/10/24 11:45:37;;;;;;;7.22;6.63;;;12.70;99.90;;;;;;5102786;27;20096;-65
2023/10/24 11:48:04;;;;;;;8.45;7.40;;;12.60;99.90;;;;;;5089933;28;20059;-65
2023/10/24 11:50:41;;;;;;;7.65;6.88;;;12.60;99.90;;;;;;5137014;27;20516;-65
2023/10/24 11:53:06;;;;;;;7.88;7.18;;;12.60;99.90;;;;;;5100500;27;20068;-65
2023/10/24 11:55:32;;;;;;;7.07;6.47;;;12.60;99.90;;;;;;5133347;27;20051;-65
2023/10/24 11:57:59;;;;;;;7.65;6.95;;;12.60;99.90;;;;;;5106726;27;20474;-65
2023/10/24 12:00:30;;;;;;;7.45;6.45;;;12.60;99.90;;;;;;5100821;27;20036;-65
2023/10/24 12:03:02;;;;;;;7.05;6.45;;;12.60;99.90;;;;;;5102361;27;20047;-65
2023/10/24 12:05:29;;;;;;;7.85;6.65;;;12.70;99.90;;;;;;5104871;27;20405;-65
2023/10/24 12:08:00;;;;;;;6.05;5.50;;;12.70;99.90;;;;;;5103671;27;20035;-65
2023/10/24 12:10:30;;;;;;;6.90;6.30;;;12.80;99.90;;;;;;5100545;28;20040;-65
2023/10/24 12:13:02;;;;;;;6.47;5.88;;;13.00;99.90;;;;;;5100983;28;20064;-65
2023/10/24 12:15:32;;;;;;;7.05;5.32;;;13.00;99.90;;;;;;5134232;27;20643;-65
2023/10/24 12:18:03;;;;;;;6.95;5.43;;;12.90;99.90;;;;;;5103610;27;20035;-65
2023/10/24 12:20:30;;;;;;;7.78;4.95;;;12.90;99.90;;;;;;5100947;27;20039;-65
2023/10/24 12:22:56;;;;;;;7.28;5.43;;;12.80;99.90;;;;;;5101704;27;20043;-65
2023/10/24 12:25:22;;;;;;;5.75;5.15;;;12.90;99.90;;;;;;5100175;27;20055;-65
2023/10/24 12:27:47;;;;;;;6.10;5.35;;;12.80;99.90;;;;;;5102748;27;20402;-65
2023/10/24 12:30:14;;;;;;;5.88;5.00;;;12.80;99.90;;;;;;5133686;27;20476;-65
2023/10/24 12:32:41;;;;;;;5.60;4.60;;;12.80;99.90;;;;;;5100584;27;20036;-66
2023/10/24 12:35:09;;;;;;;7.70;4.90;;;12.80;99.90;;;;;;5099507;28;20055;-65
2023/10/24 12:37:35;;;;;;;5.45;5.05;;;12.80;99.90;;;;;;5101324;28;20097;-65
2023/10/24 12:40:04;;;;;;;5.28;4.88;;;12.80;99.90;;;;;;5099198;28;20051;-65